Time;durP1;ratioP1;P1;durP2;ratioP2;P2;SDS_P1;SDS_P2;PMS_P1;PMS_P2;Temp;Humidity;BMP_temperature;BMP_pressure;BME280_temperature;BME280_humidity;BME280_pressure;Samples;Min_cycle;Max_cycle;Signal;HPM_P1;HPM_P2
2022/10/25 00:02:04;;;;;;;17.70;7.40;;;12.10;99.90;;;;;;4999606;28;20046;-57
2022/10/25 00:04:30;;;;;;;17.60;7.28;;;12.10;99.90;;;;;;4998312;28;20072;-57
2022/10/25 00:06:56;;;;;;;19.10;7.72;;;12.00;99.90;;;;;;5000494;28;20042;-57
2022/10/25 00:09:21;;;;;;;18.08;7.75;;;12.00;99.90;;;;;;4999004;28;20093;-57
2022/10/25 00:11:47;;;;;;;17.20;7.93;;;12.30;99.90;;;;;;5001025;28;20057;-57
2022/10/25 00:14:17;;;;;;;18.40;7.70;;;12.30;99.90;;;;;;4998359;28;20053;-57
2022/10/25 00:16:43;;;;;;;17.50;7.35;;;12.10;99.90;;;;;;5000335;28;20455;-57
2022/10/25 00:19:10;;;;;;;20.55;8.15;;;12.00;99.90;;;;;;4999698;28;20085;-57
2022/10/25 00:21:36;;;;;;;21.10;9.27;;;12.00;99.90;;;;;;4999021;28;20046;-54
2022/10/25 00:24:03;;;;;;;17.48;8.35;;;12.30;99.90;;;;;;4999917;28;20562;-57
2022/10/25 00:26:29;;;;;;;19.77;8.55;;;12.30;99.90;;;;;;4998514;28;20043;-57
2022/10/25 00:28:55;;;;;;;17.65;8.40;;;12.20;99.90;;;;;;5000139;28;20046;-57
2022/10/25 00:31:21;;;;;;;22.35;8.55;;;12.20;99.90;;;;;;4998561;28;20038;-57
2022/10/25 00:33:47;;;;;;;25.10;10.55;;;12.20;99.90;;;;;;4999669;28;20106;-56
2022/10/25 00:36:24;;;;;;;21.42;9.25;;;12.20;99.90;;;;;;4999320;28;20042;-57
2022/10/25 00:38:49;;;;;;;25.33;9.70;;;12.20;99.90;;;;;;4999222;28;20042;-57
2022/10/25 00:41:18;;;;;;;20.25;9.65;;;12.10;99.90;;;;;;4999970;28;20557;-57
2022/10/25 00:43:47;;;;;;;20.85;9.38;;;11.80;99.90;;;;;;4998538;28;20042;-57
2022/10/25 00:46:27;;;;;;;23.58;10.27;;;11.90;99.90;;;;;;5000186;28;20426;-56
2022/10/25 00:49:14;;;;;;;22.85;10.15;;;11.80;99.90;;;;;;4999002;28;20038;-53
2022/10/25 00:51:46;;;;;;;21.40;10.93;;;12.10;99.90;;;;;;4998562;28;20120;-57
2022/10/25 00:54:15;;;;;;;21.33;11.02;;;11.80;99.90;;;;;;4999816;28;20041;-57
2022/10/25 00:56:45;;;;;;;22.92;11.65;;;11.70;99.90;;;;;;4998518;28;20072;-57
2022/10/25 00:59:15;;;;;;;25.52;12.20;;;11.80;99.90;;;;;;5000134;28;20096;-57
2022/10/25 01:01:41;;;;;;;23.65;11.05;;;11.90;99.90;;;;;;5002703;28;20070;-56
2022/10/25 01:04:11;;;;;;;34.08;13.88;;;11.90;99.90;;;;;;5003411;28;20181;-57
2022/10/25 01:06:40;;;;;;;21.48;11.35;;;12.10;99.90;;;;;;5003801;28;20636;-57
2022/10/25 01:09:09;;;;;;;25.98;12.65;;;12.00;99.90;;;;;;5002354;28;20050;-57
2022/10/25 01:11:36;;;;;;;22.95;12.93;;;11.90;99.90;;;;;;5003859;28;20047;-57
2022/10/25 01:14:03;;;;;;;25.70;12.05;;;11.80;99.90;;;;;;5001672;28;20077;-57
2022/10/25 01:16:44;;;;;;;22.48;11.68;;;12.10;99.90;;;;;;5003646;28;20098;-57
2022/10/25 01:19:24;;;;;;;26.55;12.00;;;12.10;99.90;;;;;;5002847;28;20042;-57
2022/10/25 01:22:02;;;;;;;21.70;10.27;;;12.30;99.90;;;;;;5002190;28;20049;-57
2022/10/25 01:24:34;;;;;;;27.85;12.73;;;12.10;99.90;;;;;;5002123;28;20069;-57
2022/10/25 01:26:59;;;;;;;;;;;12.00;99.90;;;;;;5002156;28;20049;-57
2022/10/25 01:29:50;;;;;;;29.20;12.20;;;12.40;99.90;;;;;;5003261;28;19926;-57
2022/10/25 01:32:30;;;;;;;25.83;12.32;;;12.50;99.90;;;;;;5002915;28;20042;-56
2022/10/25 01:35:22;;;;;;;29.52;12.35;;;12.20;99.90;;;;;;5001819;28;20125;-57
2022/10/25 01:38:03;;;;;;;25.07;9.90;;;12.00;99.90;;;;;;5003235;28;20153;-57
2022/10/25 01:40:42;;;;;;;22.25;11.25;;;12.30;99.90;;;;;;4985135;28;20050;-56
2022/10/25 01:43:19;;;;;;;25.27;12.75;;;12.50;99.90;;;;;;5001930;28;20039;-56
2022/10/25 01:45:55;;;;;;;25.50;11.00;;;12.20;99.90;;;;;;5003307;28;20038;-57
2022/10/25 01:48:38;;;;;;;21.27;11.13;;;12.10;99.90;;;;;;5001303;28;20045;-56
2022/10/25 01:51:07;;;;;;;;;;;12.50;99.90;;;;;;5003203;28;20060;-56
2022/10/25 01:53:41;;;;;;;28.02;11.88;;;12.50;99.90;;;;;;5001553;28;20338;-55
2022/10/25 01:56:07;;;;;;;23.90;12.52;;;12.30;99.90;;;;;;5001286;28;20042;-56
2022/10/25 01:58:35;;;;;;;24.77;11.63;;;12.30;99.90;;;;;;5002835;28;20053;-57
2022/10/25 02:01:17;;;;;;;20.13;10.82;;;12.40;99.90;;;;;;5001327;28;20042;-57
2022/10/25 02:03:54;;;;;;;21.08;10.25;;;12.60;99.90;;;;;;5002612;28;20082;-57
2022/10/25 02:06:33;;;;;;;20.27;10.25;;;12.30;99.90;;;;;;5002347;28;20053;-57
2022/10/25 02:09:07;;;;;;;18.73;11.15;;;12.60;99.90;;;;;;5001503;28;20046;-57
2022/10/25 02:11:33;;;;;;;23.92;10.50;;;12.70;99.90;;;;;;5002847;28;20042;-57
2022/10/25 02:14:18;;;;;;;18.75;9.60;;;12.70;99.90;;;;;;5000951;28;20045;-57
2022/10/25 02:17:06;;;;;;;18.20;9.82;;;12.70;99.90;;;;;;5002283;28;20081;-56
2022/10/25 02:19:45;;;;;;;23.60;11.80;;;12.30;99.90;;;;;;5002401;28;20133;-57
2022/10/25 02:22:12;;;;;;;21.17;11.75;;;12.50;99.90;;;;;;5000929;28;20558;-57
2022/10/25 02:24:41;;;;;;;19.75;10.82;;;12.30;99.90;;;;;;5002445;28;20046;-57
2022/10/25 02:27:09;;;;;;;22.85;11.07;;;12.70;99.90;;;;;;5000822;28;20622;-57
2022/10/25 02:29:36;;;;;;;24.77;11.45;;;12.30;99.90;;;;;;5002059;28;20042;-56
2022/10/25 02:32:03;;;;;;;16.63;9.63;;;12.50;99.90;;;;;;5001666;28;20399;-57
2022/10/25 02:34:29;;;;;;;21.75;11.88;;;12.60;99.90;;;;;;5001399;28;20042;-57
2022/10/25 02:36:54;;;;;;;21.85;11.38;;;12.30;99.90;;;;;;4984801;28;20044;-57
2022/10/25 02:39:25;;;;;;;23.15;11.85;;;12.40;99.90;;;;;;5000455;28;20065;-57
2022/10/25 02:41:51;;;;;;;19.55;10.80;;;12.60;99.90;;;;;;5002038;28;20046;-57
2022/10/25 02:44:17;;;;;;;17.95;10.73;;;12.30;99.90;;;;;;5000442;28;20045;-57
2022/10/25 02:46:42;;;;;;;21.52;10.77;;;12.80;99.90;;;;;;4984490;28;20675;-57
2022/10/25 02:49:08;;;;;;;22.20;11.18;;;12.50;99.90;;;;;;4983953;28;20101;-57
2022/10/25 02:51:33;;;;;;;21.85;10.70;;;12.90;99.90;;;;;;5001076;28;20100;-57
2022/10/25 02:53:59;;;;;;;23.08;11.07;;;12.60;99.90;;;;;;5001839;28;20046;-57
2022/10/25 02:56:25;;;;;;;22.17;11.70;;;12.70;99.90;;;;;;5000420;28;20046;-58
2022/10/25 02:58:54;;;;;;;20.50;11.10;;;12.90;99.90;;;;;;5002063;28;20061;-57
2022/10/25 03:01:20;;;;;;;20.05;10.38;;;12.80;99.90;;;;;;5000385;28;20468;-57
2022/10/25 03:03:46;;;;;;;20.23;10.48;;;12.90;99.90;;;;;;4983886;28;20047;-58
2022/10/25 03:06:12;;;;;;;21.13;9.23;;;13.00;99.90;;;;;;5001237;28;20054;-58
2022/10/25 03:08:39;;;;;;;15.60;8.55;;;12.40;99.90;;;;;;5000348;28;20034;-57
2022/10/25 03:11:06;;;;;;;19.75;9.85;;;12.40;99.90;;;;;;5001198;28;20038;-57
2022/10/25 03:13:32;;;;;;;21.02;9.15;;;12.40;99.90;;;;;;4999626;28;20067;-57
2022/10/25 03:15:58;;;;;;;21.20;10.02;;;12.40;99.90;;;;;;4984270;28;20038;-57
2022/10/25 03:18:24;;;;;;;21.77;9.52;;;12.50;99.90;;;;;;4999740;28;20042;-57
2022/10/25 03:20:49;;;;;;;19.80;9.43;;;12.40;99.90;;;;;;5001624;28;20047;-57
2022/10/25 03:23:16;;;;;;;18.98;9.57;;;12.70;99.90;;;;;;4999497;28;20042;-57
2022/10/25 03:25:41;;;;;;;21.45;10.07;;;12.80;99.90;;;;;;5000419;28;20057;-57
2022/10/25 03:28:08;;;;;;;21.63;9.05;;;12.30;99.90;;;;;;5000827;28;20050;-57
2022/10/25 03:30:33;;;;;;;22.20;10.45;;;12.30;99.90;;;;;;4999523;28;20046;-57
2022/10/25 03:32:59;;;;;;;25.38;11.65;;;12.70;99.90;;;;;;5000296;28;20617;-57
2022/10/25 03:35:25;;;;;;;23.08;10.75;;;12.60;99.90;;;;;;4999396;28;20046;-57
2022/10/25 03:37:51;;;;;;;18.60;10.60;;;12.90;99.90;;;;;;5001092;28;20074;-57
2022/10/25 03:40:18;;;;;;;21.70;10.20;;;12.50;99.90;;;;;;4999853;28;20214;-57
2022/10/25 03:42:44;;;;;;;23.05;10.82;;;12.30;99.90;;;;;;4999902;28;20054;-57
2022/10/25 03:45:10;;;;;;;26.27;11.43;;;12.70;99.90;;;;;;4982520;28;20062;-57
2022/10/25 03:47:37;;;;;;;25.33;10.75;;;12.80;99.90;;;;;;4999444;28;20054;-57
2022/10/25 03:50:03;;;;;;;19.40;10.35;;;12.60;99.90;;;;;;5001084;28;20050;-57
2022/10/25 03:52:28;;;;;;;21.67;9.52;;;12.20;99.90;;;;;;4999177;28;20046;-57
2022/10/25 03:54:54;;;;;;;24.45;10.13;;;12.20;99.90;;;;;;5000829;28;20035;-57
2022/10/25 03:57:20;;;;;;;23.58;10.30;;;12.80;99.90;;;;;;4981967;28;20038;-56
2022/10/25 03:59:45;;;;;;;25.77;10.80;;;12.80;99.90;;;;;;5000156;28;20050;-57
2022/10/25 04:02:11;;;;;;;24.95;9.50;;;12.80;99.90;;;;;;5000065;28;20050;-57
2022/10/25 04:04:37;;;;;;;23.10;11.00;;;12.30;99.90;;;;;;4999295;28;20046;-57
2022/10/25 04:07:03;;;;;;;24.05;9.85;;;12.80;99.90;;;;;;4999593;28;20081;-57
2022/10/25 04:09:28;;;;;;;29.73;10.93;;;12.70;99.90;;;;;;4999038;28;20070;-57
2022/10/25 04:11:54;;;;;;;25.38;10.45;;;12.10;99.90;;;;;;4982954;28;20101;-57
2022/10/25 04:14:20;;;;;;;20.10;9.93;;;12.10;99.90;;;;;;4999177;28;20042;-56
2022/10/25 04:16:46;;;;;;;25.50;9.98;;;12.60;99.90;;;;;;5000087;28;20039;-56
2022/10/25 04:19:12;;;;;;;20.88;9.90;;;12.30;99.90;;;;;;4999818;28;20041;-57
2022/10/25 04:21:37;;;;;;;26.85;10.20;;;12.20;99.90;;;;;;4981387;28;20039;-57
2022/10/25 04:24:03;;;;;;;24.95;9.95;;;12.60;99.90;;;;;;4999585;28;20137;-57
2022/10/25 04:26:29;;;;;;;28.08;10.45;;;12.70;99.90;;;;;;4998619;28;20493;-57
2022/10/25 04:28:55;;;;;;;20.83;10.05;;;12.40;99.90;;;;;;5000262;28;20046;-57
2022/10/25 04:31:22;;;;;;;25.30;10.40;;;12.60;99.90;;;;;;4998635;28;20155;-57
2022/10/25 04:33:52;;;;;;;26.27;10.43;;;12.70;99.90;;;;;;4999775;28;20147;-57
2022/10/25 04:36:19;;;;;;;21.70;9.73;;;12.20;99.90;;;;;;4999823;28;20125;-57
2022/10/25 04:38:49;;;;;;;22.92;10.00;;;12.60;99.90;;;;;;4981205;28;20577;-57
2022/10/25 04:41:16;;;;;;;25.67;11.27;;;12.70;99.90;;;;;;5000042;28;20049;-57
2022/10/25 04:43:41;;;;;;;23.35;11.20;;;12.10;99.90;;;;;;4998542;28;20414;-57
2022/10/25 04:46:07;;;;;;;26.58;10.80;;;12.70;99.90;;;;;;5000366;28;20034;-56
2022/10/25 04:48:36;;;;;;;23.60;10.02;;;12.10;99.90;;;;;;4998455;28;20585;-56
2022/10/25 04:51:02;;;;;;;23.70;9.10;;;12.50;99.90;;;;;;4999195;28;20042;-57
2022/10/25 04:53:28;;;;;;;23.52;9.07;;;12.50;99.90;;;;;;4999072;28;20430;-57
2022/10/25 04:55:59;;;;;;;23.60;9.95;;;12.50;99.90;;;;;;4998872;28;20043;-57
2022/10/25 04:58:26;;;;;;;26.23;9.95;;;12.20;99.90;;;;;;4999998;28;20430;-58
2022/10/25 05:00:53;;;;;;;30.33;10.70;;;12.20;99.90;;;;;;4998244;28;20031;-57
2022/10/25 05:03:19;;;;;;;20.35;9.20;;;12.10;99.90;;;;;;4982360;28;20121;-57
2022/10/25 05:05:45;;;;;;;22.05;8.98;;;12.60;99.90;;;;;;5013585;28;20487;-56
2022/10/25 05:08:11;;;;;;;21.58;8.48;;;12.20;99.90;;;;;;4999248;28;20054;-56
2022/10/25 05:10:37;;;;;;;19.15;8.75;;;12.10;99.90;;;;;;4981766;28;20049;-56
2022/10/25 05:13:02;;;;;;;23.23;8.32;;;12.50;99.90;;;;;;4998672;28;20052;-57
2022/10/25 05:15:28;;;;;;;23.17;9.32;;;12.40;99.90;;;;;;4999765;28;20038;-56
2022/10/25 05:17:58;;;;;;;24.90;8.40;;;12.10;99.90;;;;;;4998007;28;20051;-57
2022/10/25 05:20:24;;;;;;;18.90;7.55;;;12.00;99.90;;;;;;4999747;28;20049;-57
2022/10/25 05:22:50;;;;;;;21.83;8.10;;;12.50;99.90;;;;;;4998347;28;20042;-57
2022/10/25 05:25:16;;;;;;;20.45;7.95;;;12.00;99.90;;;;;;4999103;28;20110;-57
2022/10/25 05:27:42;;;;;;;26.30;7.97;;;12.40;99.90;;;;;;4999191;28;20043;-58
2022/10/25 05:30:08;;;;;;;21.55;8.25;;;12.20;99.90;;;;;;4998607;28;20046;-57
2022/10/25 05:32:34;;;;;;;23.10;8.25;;;12.50;99.90;;;;;;4999310;28;20549;-57
2022/10/25 05:35:00;;;;;;;27.40;8.70;;;12.10;99.90;;;;;;4997883;28;20046;-57
2022/10/25 05:37:25;;;;;;;27.50;9.57;;;12.20;99.90;;;;;;4999981;28;20038;-57
2022/10/25 05:39:51;;;;;;;22.90;10.18;;;12.60;99.90;;;;;;4997957;28;20043;-56
2022/10/25 05:42:17;;;;;;;24.90;9.43;;;12.40;99.90;;;;;;4999209;28;20073;-57
2022/10/25 05:44:42;;;;;;;29.27;10.52;;;12.60;99.90;;;;;;4998798;28;20042;-56
2022/10/25 05:47:08;;;;;;;24.73;10.05;;;12.50;99.90;;;;;;5001288;28;20675;-57
2022/10/25 05:49:38;;;;;;;21.70;9.80;;;12.60;99.90;;;;;;5002673;28;20254;-57
2022/10/25 05:52:05;;;;;;;25.95;10.82;;;12.40;99.90;;;;;;4998257;28;20054;-57
2022/10/25 05:54:31;;;;;;;27.48;11.93;;;12.60;99.90;;;;;;4999510;28;20070;-57
2022/10/25 05:56:57;;;;;;;30.75;11.52;;;12.30;99.90;;;;;;4997775;28;20053;-57
2022/10/25 05:59:22;;;;;;;30.27;12.23;;;12.70;99.90;;;;;;4981659;28;20165;-57
2022/10/25 06:01:48;;;;;;;33.60;12.93;;;12.30;99.90;;;;;;4997836;28;20518;-57
2022/10/25 06:04:15;;;;;;;26.70;11.77;;;12.50;99.90;;;;;;4998183;28;20043;-57
2022/10/25 06:06:43;;;;;;;30.48;11.85;;;12.10;99.90;;;;;;4999013;28;20054;-57
2022/10/25 06:09:09;;;;;;;28.92;11.52;;;12.10;99.90;;;;;;4996545;28;20057;-57
2022/10/25 06:11:35;;;;;;;27.98;12.70;;;12.10;99.90;;;;;;4997807;28;20133;-57
2022/10/25 06:14:01;;;;;;;27.88;11.63;;;12.30;99.90;;;;;;4996161;28;20042;-57
2022/10/25 06:16:27;;;;;;;29.13;13.80;;;12.10;99.90;;;;;;4998645;28;20149;-57
2022/10/25 06:18:53;;;;;;;26.42;11.38;;;12.50;99.90;;;;;;4997967;28;20121;-56
2022/10/25 06:21:25;;;;;;;28.50;11.75;;;12.50;99.90;;;;;;4964191;28;20046;-56
2022/10/25 06:23:51;;;;;;;30.05;12.40;;;12.60;99.90;;;;;;4998861;28;20081;-57
2022/10/25 06:26:20;;;;;;;28.95;11.57;;;12.00;99.90;;;;;;4996744;28;20042;-57
2022/10/25 06:28:46;;;;;;;29.08;11.30;;;11.90;99.90;;;;;;4998845;28;20517;-57
2022/10/25 06:31:17;;;;;;;28.48;11.32;;;12.50;99.90;;;;;;4997062;28;20096;-57
2022/10/25 06:33:43;;;;;;;29.20;11.27;;;12.10;99.90;;;;;;4997907;28;20526;-55
2022/10/25 06:36:15;;;;;;;31.23;10.93;;;12.00;99.90;;;;;;4997898;28;20046;-56
2022/10/25 06:38:42;;;;;;;27.38;10.40;;;11.90;99.90;;;;;;4996900;28;20038;-57
2022/10/25 06:41:16;;;;;;;26.95;10.70;;;12.50;99.90;;;;;;4998268;28;20078;-57
2022/10/25 06:43:42;;;;;;;23.25;9.35;;;12.20;99.90;;;;;;4996546;28;20065;-57
2022/10/25 06:46:26;;;;;;;27.75;9.82;;;12.10;99.90;;;;;;4998504;28;20046;-57
2022/10/25 06:48:55;;;;;;;23.83;9.23;;;12.40;99.90;;;;;;4997595;28;20073;-57
2022/10/25 06:51:21;;;;;;;25.90;9.27;;;12.20;99.90;;;;;;4995687;28;20042;-57
2022/10/25 06:53:52;;;;;;;19.42;8.38;;;12.00;99.90;;;;;;4995455;28;20077;-57
2022/10/25 06:56:20;;;;;;;22.40;8.68;;;12.20;99.90;;;;;;4994787;28;20109;-57
2022/10/25 06:58:46;;;;;;;21.98;9.27;;;11.90;99.90;;;;;;4993323;28;20042;-57
2022/10/25 07:01:14;;;;;;;23.95;8.45;;;12.10;99.90;;;;;;4995329;28;20605;-57
2022/10/25 07:03:40;;;;;;;25.23;8.10;;;12.30;99.90;;;;;;5011651;28;20064;-57
2022/10/25 07:06:34;;;;;;;25.50;8.43;;;11.90;99.90;;;;;;4996654;28;20471;-57
2022/10/25 07:09:01;;;;;;;23.23;8.82;;;12.00;99.90;;;;;;4988604;28;20065;-57
2022/10/25 07:11:29;;;;;;;19.77;7.60;;;12.10;99.90;;;;;;4997976;28;20038;-56
2022/10/25 07:13:57;;;;;;;21.50;8.07;;;12.30;99.90;;;;;;4995838;28;20154;-56
2022/10/25 07:16:24;;;;;;;19.50;7.25;;;12.10;99.90;;;;;;4997790;28;20053;-57
2022/10/25 07:18:50;;;;;;;20.67;7.07;;;12.10;99.90;;;;;;4979614;28;20495;-56
2022/10/25 07:21:19;;;;;;;21.38;6.97;;;12.40;99.90;;;;;;4996701;28;20046;-57
2022/10/25 07:23:45;;;;;;;17.55;6.13;;;12.30;99.90;;;;;;4997443;28;20402;-56
2022/10/25 07:26:20;;;;;;;23.60;6.80;;;12.60;99.90;;;;;;4995525;28;20133;-57
2022/10/25 07:28:48;;;;;;;21.25;6.40;;;12.60;99.90;;;;;;4997859;28;20088;-57
2022/10/25 07:31:16;;;;;;;18.98;6.38;;;12.60;99.90;;;;;;4996142;28;20060;-56
2022/10/25 07:33:42;;;;;;;15.63;5.03;;;12.20;99.90;;;;;;4997029;28;20042;-57
2022/10/25 07:36:08;;;;;;;20.73;5.63;;;12.70;99.90;;;;;;4996639;28;20176;-56
2022/10/25 07:38:34;;;;;;;14.60;5.72;;;12.70;99.90;;;;;;4995593;28;20042;-56
2022/10/25 07:41:00;;;;;;;21.77;5.63;;;12.60;99.90;;;;;;4996900;28;20581;-57
2022/10/25 07:43:26;;;;;;;19.88;5.45;;;12.80;99.90;;;;;;4995561;28;20052;-57
2022/10/25 07:45:53;;;;;;;19.35;5.47;;;12.30;99.90;;;;;;4997197;28;20049;-56
2022/10/25 07:48:19;;;;;;;15.60;5.03;;;12.60;99.90;;;;;;4995217;28;20094;-56
2022/10/25 07:50:44;;;;;;;21.17;5.95;;;12.90;99.90;;;;;;4996773;28;20042;-57
2022/10/25 07:53:10;;;;;;;15.57;4.72;;;13.00;99.90;;;;;;4994934;28;20042;-56
2022/10/25 07:55:36;;;;;;;15.05;5.10;;;13.10;99.90;;;;;;4995999;28;20050;-57
2022/10/25 07:58:04;;;;;;;21.10;5.70;;;13.10;99.90;;;;;;4997160;28;20046;-57
2022/10/25 08:00:30;;;;;;;20.13;5.20;;;12.80;99.90;;;;;;5010161;28;20046;-57
2022/10/25 08:02:55;;;;;;;14.32;4.75;;;12.80;99.90;;;;;;4996404;28;20050;-57
2022/10/25 08:05:22;;;;;;;18.15;6.72;;;13.10;99.90;;;;;;4995531;28;20050;-57
2022/10/25 08:07:49;;;;;;;16.58;5.30;;;12.90;99.90;;;;;;4979121;28;20061;-56
2022/10/25 08:10:15;;;;;;;14.05;5.07;;;12.90;99.90;;;;;;4995726;28;20076;-57
2022/10/25 08:12:40;;;;;;;17.63;5.07;;;12.90;99.90;;;;;;4996447;28;20094;-57
2022/10/25 08:15:06;;;;;;;19.02;5.53;;;12.90;99.90;;;;;;5013490;28;20057;-57
2022/10/25 08:17:32;;;;;;;14.40;5.57;;;12.90;99.90;;;;;;5011940;28;20046;-57
2022/10/25 08:19:58;;;;;;;23.20;6.10;;;13.40;99.90;;;;;;5014182;28;20046;-57
2022/10/25 08:22:24;;;;;;;18.35;5.45;;;13.50;99.90;;;;;;5001992;28;20058;-57
2022/10/25 08:24:50;;;;;;;17.40;5.65;;;13.00;99.90;;;;;;4991059;28;20085;-56
2022/10/25 08:27:16;;;;;;;21.60;6.78;;;13.40;99.90;;;;;;4992408;28;20675;-57
2022/10/25 08:29:42;;;;;;;19.33;5.22;;;13.30;99.90;;;;;;4995541;28;20304;-57
2022/10/25 08:32:08;;;;;;;20.65;6.35;;;13.10;99.90;;;;;;4995993;28;20102;-57
2022/10/25 08:34:33;;;;;;;17.73;5.40;;;13.20;99.90;;;;;;4995179;28;20085;-57
2022/10/25 08:36:59;;;;;;;19.63;5.15;;;13.60;99.90;;;;;;4995946;28;20042;-57
2022/10/25 08:39:24;;;;;;;24.23;5.60;;;13.70;99.90;;;;;;4993911;28;20225;-57
2022/10/25 08:41:54;;;;;;;19.38;5.15;;;13.70;99.90;;;;;;4996060;28;20436;-57
2022/10/25 08:44:51;;;;;;;21.90;5.82;;;13.40;99.90;;;;;;4992933;28;20061;-55
2022/10/25 08:47:25;;;;;;;17.60;5.60;;;13.60;99.90;;;;;;4994833;28;20077;-56
2022/10/25 08:49:57;;;;;;;14.27;5.55;;;13.40;99.90;;;;;;4978467;28;20089;-57
2022/10/25 08:52:38;;;;;;;18.45;6.10;;;13.90;99.90;;;;;;4994247;28;20114;-57
2022/10/25 08:55:20;;;;;;;20.65;6.65;;;13.40;99.90;;;;;;4994913;28;20050;-56
2022/10/25 08:57:48;;;;;;;21.53;6.77;;;13.50;99.90;;;;;;5007656;28;20042;-57
2022/10/25 09:00:22;;;;;;;19.88;6.95;;;13.70;99.90;;;;;;4977171;28;20134;-57
2022/10/25 09:02:51;;;;;;;23.38;7.32;;;13.60;99.90;;;;;;4977214;28;20098;-57
2022/10/25 09:05:37;;;;;;;23.60;7.55;;;13.70;99.90;;;;;;4994476;28;20094;-57
2022/10/25 09:08:33;;;;;;;19.10;7.05;;;13.70;99.90;;;;;;4995670;28;20081;-56
2022/10/25 09:11:20;;;;;;;15.70;7.82;;;14.10;99.90;;;;;;4998442;28;20053;-56
2022/10/25 09:13:54;;;;;;;21.92;7.45;;;14.20;99.90;;;;;;4997967;28;20662;-57
2022/10/25 09:16:32;;;;;;;18.45;7.30;;;13.90;99.90;;;;;;4999586;28;20057;-57
2022/10/25 09:18:58;;;;;;;19.45;8.38;;;13.90;99.90;;;;;;4999229;28;20077;-56
2022/10/25 09:21:50;;;;;;;19.38;7.60;;;13.90;99.90;;;;;;5000620;28;20050;-56
2022/10/25 09:24:28;;;;;;;22.08;7.50;;;14.00;99.90;;;;;;5003548;28;20047;-56
2022/10/25 09:27:01;;;;;;;17.60;6.95;;;14.10;99.90;;;;;;5002255;28;20046;-58
2022/10/25 09:29:35;;;;;;;21.52;7.40;;;14.30;99.90;;;;;;5003396;28;20038;-56
2022/10/25 09:32:11;;;;;;;21.83;7.68;;;14.20;99.90;;;;;;5003191;28;20050;-57
2022/10/25 09:34:37;;;;;;;22.77;8.20;;;14.30;99.90;;;;;;5001914;28;20050;-57
2022/10/25 09:37:26;;;;;;;23.90;8.18;;;14.40;99.90;;;;;;5003660;28;20093;-57
2022/10/25 09:39:58;;;;;;;17.95;7.40;;;14.40;99.90;;;;;;5002102;28;20122;-57
2022/10/25 09:42:36;;;;;;;22.85;7.50;;;14.00;99.90;;;;;;5002690;28;20497;-57
2022/10/25 09:45:07;;;;;;;17.83;6.20;;;14.30;99.90;;;;;;5002968;28;20050;-56
2022/10/25 09:47:44;;;;;;;15.77;5.93;;;14.00;99.90;;;;;;5001769;28;20080;-57
2022/10/25 09:50:20;;;;;;;13.85;5.68;;;14.00;99.90;;;;;;5003569;28;20038;-57
2022/10/25 09:52:55;;;;;;;22.80;5.90;;;14.00;99.90;;;;;;5001803;28;20053;-57
2022/10/25 09:55:49;;;;;;;20.33;5.82;;;14.20;99.90;;;;;;5002410;28;20112;-57
2022/10/25 09:58:19;;;;;;;14.02;4.63;;;14.10;99.90;;;;;;4995503;28;20054;-57
2022/10/25 10:00:45;;;;;;;16.35;3.92;;;14.40;99.90;;;;;;5001500;28;20049;-56
2022/10/25 10:03:12;;;;;;;17.08;3.60;;;14.20;99.90;;;;;;5002755;28;20042;-57
2022/10/25 10:05:40;;;;;;;17.38;3.78;;;14.40;99.90;;;;;;5001647;28;20125;-56
2022/10/25 10:08:08;;;;;;;12.93;2.83;;;14.30;99.90;;;;;;5002126;28;20050;-57
2022/10/25 10:10:34;;;;;;;16.85;3.35;;;14.30;99.90;;;;;;5002403;28;20105;-57
2022/10/25 10:13:14;;;;;;;17.95;3.33;;;14.20;99.90;;;;;;5001154;28;20100;-57
2022/10/25 10:15:59;;;;;;;18.20;3.45;;;14.30;99.90;;;;;;4983461;28;20059;-57
2022/10/25 10:18:29;;;;;;;9.77;2.83;;;14.40;99.90;;;;;;4981469;28;20038;-57
2022/10/25 10:21:10;;;;;;;16.85;2.70;;;14.40;99.90;;;;;;4981504;28;20066;-56
2022/10/25 10:23:46;;;;;;;13.50;2.10;;;14.60;99.90;;;;;;4982358;28;20038;-57
2022/10/25 10:26:42;;;;;;;14.77;2.40;;;14.80;99.90;;;;;;4981003;28;20066;-57
2022/10/25 10:29:22;;;;;;;14.82;2.60;;;14.90;99.90;;;;;;4982392;28;20081;-57
2022/10/25 10:31:52;;;;;;;13.32;2.38;;;14.90;99.90;;;;;;4980828;28;20042;-57
2022/10/25 10:34:42;;;;;;;10.70;2.40;;;14.80;99.90;;;;;;4981881;28;20047;-57
2022/10/25 10:37:20;;;;;;;12.82;2.30;;;14.70;99.90;;;;;;4982735;28;20578;-57
2022/10/25 10:39:58;;;;;;;11.90;2.45;;;14.90;99.90;;;;;;4981273;28;20076;-56
2022/10/25 10:42:33;;;;;;;16.83;2.88;;;14.70;99.90;;;;;;4998171;28;20094;-57
2022/10/25 10:45:08;;;;;;;11.70;2.38;;;14.80;99.90;;;;;;5002222;28;20050;-57
2022/10/25 10:47:49;;;;;;;15.73;3.55;;;14.90;99.90;;;;;;5000382;28;20078;-57
2022/10/25 10:50:24;;;;;;;14.40;2.28;;;15.00;99.90;;;;;;5001908;28;20053;-57
2022/10/25 10:53:00;;;;;;;12.77;2.50;;;14.90;99.90;;;;;;5001010;28;20134;-57
2022/10/25 10:55:30;;;;;;;19.30;2.55;;;15.10;99.90;;;;;;5016005;28;20069;-57
2022/10/25 10:58:04;;;;;;;12.20;2.85;;;14.90;99.90;;;;;;5001595;28;20074;-57
2022/10/25 11:00:31;;;;;;;11.18;2.45;;;14.90;99.90;;;;;;4962840;28;20058;-57
2022/10/25 11:02:57;;;;;;;15.65;3.35;;;15.10;99.90;;;;;;4963911;28;20054;-56
2022/10/25 11:05:32;;;;;;;15.95;2.92;;;15.10;99.90;;;;;;4980701;28;20218;-57
2022/10/25 11:08:07;;;;;;;10.30;1.98;;;15.10;99.90;;;;;;4981957;28;20492;-57
2022/10/25 11:10:34;;;;;;;13.38;2.60;;;15.20;99.90;;;;;;4981897;28;20074;-57
2022/10/25 11:13:12;;;;;;;13.40;2.25;;;15.10;99.90;;;;;;4980781;28;20522;-57
2022/10/25 11:16:17;;;;;;;13.23;2.25;;;15.40;99.90;;;;;;4982292;28;20431;-57
2022/10/25 11:18:57;;;;;;;12.43;2.05;;;15.60;99.90;;;;;;4938299;28;20066;-57
2022/10/25 11:21:25;;;;;;;10.48;2.67;;;15.40;99.90;;;;;;4980984;28;20112;-57
2022/10/25 11:24:01;;;;;;;10.20;1.90;;;15.20;99.90;;;;;;4981774;28;20093;-56
2022/10/25 11:26:37;;;;;;;15.00;2.25;;;15.20;99.90;;;;;;4979893;28;20061;-57
2022/10/25 11:29:15;;;;;;;11.98;2.10;;;15.20;99.90;;;;;;4982094;28;20043;-57
2022/10/25 11:32:17;;;;;;;10.52;2.20;;;15.20;99.90;;;;;;4981037;28;20034;-57
2022/10/25 11:34:58;;;;;;;11.57;2.30;;;15.30;99.90;;;;;;4979922;28;20046;-57
2022/10/25 11:37:48;;;;;;;10.05;1.83;;;15.50;99.90;;;;;;4982006;28;20035;-57
2022/10/25 11:40:21;;;;;;;12.90;2.30;;;15.50;99.90;;;;;;4979825;28;20184;-57
2022/10/25 11:43:39;;;;;;;10.10;2.00;;;15.40;99.90;;;;;;4980041;28;20062;-56
2022/10/25 11:46:20;;;;;;;11.00;2.10;;;15.50;99.90;;;;;;4947012;28;20059;-57
2022/10/25 11:49:01;;;;;;;11.20;1.85;;;15.50;99.90;;;;;;4980977;28;20483;-57
2022/10/25 11:52:03;;;;;;;11.60;2.38;;;15.30;99.90;;;;;;4978964;28;20038;-57
2022/10/25 11:54:35;;;;;;;11.65;2.70;;;15.60;99.90;;;;;;4960147;28;20430;-57
2022/10/25 11:57:32;;;;;;;13.32;2.28;;;15.80;99.90;;;;;;4979826;28;20042;-57
2022/10/25 11:59:58;;;;;;;11.38;2.33;;;15.90;99.90;;;;;;4979472;28;20066;-57
2022/10/25 12:02:58;;;;;;;9.45;2.00;;;16.00;99.90;;;;;;4962546;28;20047;-57
2022/10/25 12:05:31;;;;;;;11.23;3.67;;;16.00;99.90;;;;;;4899316;29;20029;-57
2022/10/25 12:08:33;;;;;;;13.40;2.90;;;16.10;99.90;;;;;;4949693;28;20074;-57
2022/10/25 12:11:07;;;;;;;9.60;2.58;;;16.10;99.90;;;;;;4979684;28;20086;-57
2022/10/25 12:13:39;;;;;;;10.90;2.80;;;16.20;99.90;;;;;;4979453;28;20059;-57
2022/10/25 12:16:10;;;;;;;14.35;3.10;;;16.10;99.90;;;;;;4981216;28;20446;-57
2022/10/25 12:18:49;;;;;;;13.38;2.50;;;16.10;99.90;;;;;;4979451;28;20042;-57
2022/10/25 12:21:21;;;;;;;14.18;3.53;;;16.10;99.90;;;;;;4979523;28;20047;-58
2022/10/25 12:23:50;;;;;;;9.80;2.47;;;16.10;99.90;;;;;;4980625;28;20046;-56
2022/10/25 12:26:34;;;;;;;11.75;2.50;;;16.10;99.90;;;;;;4978885;28;20051;-57
2022/10/25 12:29:04;;;;;;;9.57;2.83;;;16.00;99.90;;;;;;4981022;28;20058;-57
2022/10/25 12:31:39;;;;;;;10.45;2.03;;;15.80;99.90;;;;;;4996315;28;20042;-57
2022/10/25 12:34:05;;;;;;;7.97;2.08;;;15.70;99.90;;;;;;4981468;28;20054;-57
2022/10/25 12:36:39;;;;;;;9.85;2.13;;;15.60;99.90;;;;;;4980836;28;20086;-57
2022/10/25 12:39:41;;;;;;;10.13;2.10;;;15.70;99.90;;;;;;4978077;28;20050;-58
2022/10/25 12:42:17;;;;;;;9.82;2.03;;;15.80;99.90;;;;;;4980504;28;20129;-57
2022/10/25 12:45:29;;;;;;;10.32;2.03;;;15.80;99.90;;;;;;4962608;28;20112;-54
2022/10/25 12:48:03;;;;;;;7.32;2.20;;;15.80;99.90;;;;;;4979187;28;20047;-57
2022/10/25 12:51:06;;;;;;;19.52;2.70;;;15.80;99.90;;;;;;4980206;28;20046;-57
2022/10/25 12:53:50;;;;;;;8.80;1.60;;;15.70;99.90;;;;;;4980250;28;20053;-58
2022/10/25 12:56:25;;;;;;;8.60;2.15;;;15.70;99.90;;;;;;4977898;28;20053;-57
2022/10/25 12:59:08;;;;;;;8.52;1.85;;;15.60;99.90;;;;;;4996412;28;20038;-57